sensor_id;sensor_type;location;lat;lon;timestamp;temperature;humidity
14188;DHT22;7175;51.978;5.330;2023-04-24T00:01:50;10.20;99.90
14188;DHT22;7175;51.978;5.330;2023-04-24T00:04:19;10.20;99.90
14188;DHT22;7175;51.978;5.330;2023-04-24T00:06:47;10.20;99.90
14188;DHT22;7175;51.978;5.330;2023-04-24T00:09:22;10.20;99.90
14188;DHT22;7175;51.978;5.330;2023-04-24T00:11:50;10.20;99.90
14188;DHT22;7175;51.978;5.330;2023-04-24T00:14:18;10.20;99.90
14188;DHT22;7175;51.978;5.330;2023-04-24T00:16:46;10.20;99.90
14188;DHT22;7175;51.978;5.330;2023-04-24T00:19:15;10.20;99.90
14188;DHT22;7175;51.978;5.330;2023-04-24T00:21:44;10.20;99.90
14188;DHT22;7175;51.978;5.330;2023-04-24T00:24:12;10.10;99.90
14188;DHT22;7175;51.978;5.330;2023-04-24T00:26:42;10.10;99.90
14188;DHT22;7175;51.978;5.330;2023-04-24T00:29:10;10.10;99.90
14188;DHT22;7175;51.978;5.330;2023-04-24T00:31:38;10.10;99.90
14188;DHT22;7175;51.978;5.330;2023-04-24T00:34:06;10.10;99.90
14188;DHT22;7175;51.978;5.330;2023-04-24T00:36:34;10.10;99.90
14188;DHT22;7175;51.978;5.330;2023-04-24T00:39:03;10.10;99.90
14188;DHT22;7175;51.978;5.330;2023-04-24T00:41:31;10.10;99.90
14188;DHT22;7175;51.978;5.330;2023-04-24T00:44:00;10.10;99.90
14188;DHT22;7175;51.978;5.330;2023-04-24T00:46:29;10.10;99.90
14188;DHT22;7175;51.978;5.330;2023-04-24T00:48:59;10.10;99.90
14188;DHT22;7175;51.978;5.330;2023-04-24T00:51:27;10.10;99.90
14188;DHT22;7175;51.978;5.330;2023-04-24T00:53:55;10.10;99.90
14188;DHT22;7175;51.978;5.330;2023-04-24T00:56:23;10.10;99.90
14188;DHT22;7175;51.978;5.330;2023-04-24T00:58:52;10.10;99.90
14188;DHT22;7175;51.978;5.330;2023-04-24T01:01:22;10.10;99.90
14188;DHT22;7175;51.978;5.330;2023-04-24T01:03:51;10.10;99.90
14188;DHT22;7175;51.978;5.330;2023-04-24T01:06:22;10.10;99.90
14188;DHT22;7175;51.978;5.330;2023-04-24T01:08:50;10.10;99.90
14188;DHT22;7175;51.978;5.330;2023-04-24T01:11:18;10.00;99.90
14188;DHT22;7175;51.978;5.330;2023-04-24T01:13:47;10.00;99.90
14188;DHT22;7175;51.978;5.330;2023-04-24T01:16:15;10.00;99.90
14188;DHT22;7175;51.978;5.330;2023-04-24T01:18:46;10.00;99.90
14188;DHT22;7175;51.978;5.330;2023-04-24T01:21:15;10.00;99.90
14188;DHT22;7175;51.978;5.330;2023-04-24T01:23:45;10.10;99.90
14188;DHT22;7175;51.978;5.330;2023-04-24T01:26:15;10.00;99.90
14188;DHT22;7175;51.978;5.330;2023-04-24T01:28:43;10.10;99.90
14188;DHT22;7175;51.978;5.330;2023-04-24T01:31:12;10.10;99.90
14188;DHT22;7175;51.978;5.330;2023-04-24T01:33:41;10.00;99.90
14188;DHT22;7175;51.978;5.330;2023-04-24T01:36:11;10.00;99.90
14188;DHT22;7175;51.978;5.330;2023-04-24T01:38:39;10.00;99.90
14188;DHT22;7175;51.978;5.330;2023-04-24T01:41:08;10.00;99.90
14188;DHT22;7175;51.978;5.330;2023-04-24T01:43:37;10.10;99.90
14188;DHT22;7175;51.978;5.330;2023-04-24T01:46:06;10.10;99.90
14188;DHT22;7175;51.978;5.330;2023-04-24T01:48:35;10.10;99.90
14188;DHT22;7175;51.978;5.330;2023-04-24T01:51:03;10.10;99.90
14188;DHT22;7175;51.978;5.330;2023-04-24T01:53:31;10.00;99.90
14188;DHT22;7175;51.978;5.330;2023-04-24T01:56:00;10.00;99.90
14188;DHT22;7175;51.978;5.330;2023-04-24T01:58:30;10.00;99.90
14188;DHT22;7175;51.978;5.330;2023-04-24T02:00:59;10.10;99.90
14188;DHT22;7175;51.978;5.330;2023-04-24T02:03:28;10.00;99.90
14188;DHT22;7175;51.978;5.330;2023-04-24T02:05:56;10.00;99.90
14188;DHT22;7175;51.978;5.330;2023-04-24T02:08:24;10.00;99.90
14188;DHT22;7175;51.978;5.330;2023-04-24T02:10:52;10.00;99.90
14188;DHT22;7175;51.978;5.330;2023-04-24T02:13:20;10.00;99.90
14188;DHT22;7175;51.978;5.330;2023-04-24T02:15:50;10.00;99.90
14188;DHT22;7175;51.978;5.330;2023-04-24T02:18:18;10.00;99.90
14188;DHT22;7175;51.978;5.330;2023-04-24T02:20:46;10.00;99.90
14188;DHT22;7175;51.978;5.330;2023-04-24T02:23:14;10.00;99.90
14188;DHT22;7175;51.978;5.330;2023-04-24T02:25:43;10.00;99.90
14188;DHT22;7175;51.978;5.330;2023-04-24T02:28:11;10.00;99.90
14188;DHT22;7175;51.978;5.330;2023-04-24T02:30:39;10.00;99.90
14188;DHT22;7175;51.978;5.330;2023-04-24T02:33:08;10.00;99.90
14188;DHT22;7175;51.978;5.330;2023-04-24T02:35:36;10.00;99.90
14188;DHT22;7175;51.978;5.330;2023-04-24T02:38:05;10.10;99.90
14188;DHT22;7175;51.978;5.330;2023-04-24T02:40:33;10.10;99.90
14188;DHT22;7175;51.978;5.330;2023-04-24T02:43:01;10.10;99.90
14188;DHT22;7175;51.978;5.330;2023-04-24T02:45:30;10.00;99.90
14188;DHT22;7175;51.978;5.330;2023-04-24T02:47:58;10.00;99.90
14188;DHT22;7175;51.978;5.330;2023-04-24T02:50:28;10.00;99.90
14188;DHT22;7175;51.978;5.330;2023-04-24T02:52:56;10.00;99.90
14188;DHT22;7175;51.978;5.330;2023-04-24T02:55:24;10.00;99.90
14188;DHT22;7175;51.978;5.330;2023-04-24T02:57:52;10.00;99.90
14188;DHT22;7175;51.978;5.330;2023-04-24T03:00:21;10.00;99.90
14188;DHT22;7175;51.978;5.330;2023-04-24T03:02:49;10.00;99.90
14188;DHT22;7175;51.978;5.330;2023-04-24T03:05:17;9.90;99.90
14188;DHT22;7175;51.978;5.330;2023-04-24T03:07:47;9.90;99.90
14188;DHT22;7175;51.978;5.330;2023-04-24T03:10:15;9.90;99.90
14188;DHT22;7175;51.978;5.330;2023-04-24T03:12:44;9.90;99.90
14188;DHT22;7175;51.978;5.330;2023-04-24T03:15:12;9.90;99.90
14188;DHT22;7175;51.978;5.330;2023-04-24T03:17:40;10.00;99.90
14188;DHT22;7175;51.978;5.330;2023-04-24T03:20:10;9.90;99.90
14188;DHT22;7175;51.978;5.330;2023-04-24T03:22:38;9.90;99.90
14188;DHT22;7175;51.978;5.330;2023-04-24T03:25:08;9.90;99.90
14188;DHT22;7175;51.978;5.330;2023-04-24T03:27:37;9.90;99.90
14188;DHT22;7175;51.978;5.330;2023-04-24T03:30:07;9.90;99.90
14188;DHT22;7175;51.978;5.330;2023-04-24T03:32:35;9.90;99.90
14188;DHT22;7175;51.978;5.330;2023-04-24T03:35:04;9.90;99.90
14188;DHT22;7175;51.978;5.330;2023-04-24T03:37:33;9.90;99.90
14188;DHT22;7175;51.978;5.330;2023-04-24T03:40:01;9.80;99.90
14188;DHT22;7175;51.978;5.330;2023-04-24T03:42:30;9.90;99.90
14188;DHT22;7175;51.978;5.330;2023-04-24T03:44:59;9.80;99.90
14188;DHT22;7175;51.978;5.330;2023-04-24T03:47:27;9.80;99.90
14188;DHT22;7175;51.978;5.330;2023-04-24T03:49:55;9.80;99.90
14188;DHT22;7175;51.978;5.330;2023-04-24T03:52:23;9.90;99.90
14188;DHT22;7175;51.978;5.330;2023-04-24T03:54:51;9.70;99.90
14188;DHT22;7175;51.978;5.330;2023-04-24T03:57:19;9.70;99.90
14188;DHT22;7175;51.978;5.330;2023-04-24T03:59:49;9.70;99.90
14188;DHT22;7175;51.978;5.330;2023-04-24T04:02:18;9.60;99.90
14188;DHT22;7175;51.978;5.330;2023-04-24T04:04:47;9.60;99.90
14188;DHT22;7175;51.978;5.330;2023-04-24T04:07:16;9.60;99.90
14188;DHT22;7175;51.978;5.330;2023-04-24T04:09:44;9.60;99.90
14188;DHT22;7175;51.978;5.330;2023-04-24T04:12:12;9.60;99.90
14188;DHT22;7175;51.978;5.330;2023-04-24T04:14:40;9.50;99.90
14188;DHT22;7175;51.978;5.330;2023-04-24T04:17:11;9.60;99.90
14188;DHT22;7175;51.978;5.330;2023-04-24T04:19:39;9.60;99.90
14188;DHT22;7175;51.978;5.330;2023-04-24T04:22:07;9.60;99.90
14188;DHT22;7175;51.978;5.330;2023-04-24T04:24:36;9.60;99.90
14188;DHT22;7175;51.978;5.330;2023-04-24T04:27:05;9.60;99.90
14188;DHT22;7175;51.978;5.330;2023-04-24T04:29:33;9.60;99.90
14188;DHT22;7175;51.978;5.330;2023-04-24T04:32:04;9.60;99.90
14188;DHT22;7175;51.978;5.330;2023-04-24T04:34:34;9.50;99.90
14188;DHT22;7175;51.978;5.330;2023-04-24T04:37:04;9.50;99.90
14188;DHT22;7175;51.978;5.330;2023-04-24T04:39:32;9.50;99.90
14188;DHT22;7175;51.978;5.330;2023-04-24T04:42:00;9.50;99.90
14188;DHT22;7175;51.978;5.330;2023-04-24T04:44:28;9.50;99.90
14188;DHT22;7175;51.978;5.330;2023-04-24T04:46:57;9.50;99.90
14188;DHT22;7175;51.978;5.330;2023-04-24T04:49:27;9.50;99.90
14188;DHT22;7175;51.978;5.330;2023-04-24T04:51:57;9.50;99.90
14188;DHT22;7175;51.978;5.330;2023-04-24T04:54:25;9.50;99.90
14188;DHT22;7175;51.978;5.330;2023-04-24T04:56:53;9.50;99.90
14188;DHT22;7175;51.978;5.330;2023-04-24T04:59:22;9.50;99.90
14188;DHT22;7175;51.978;5.330;2023-04-24T05:01:50;9.50;99.90
14188;DHT22;7175;51.978;5.330;2023-04-24T05:04:18;9.50;99.90
14188;DHT22;7175;51.978;5.330;2023-04-24T05:06:46;9.40;99.90
14188;DHT22;7175;51.978;5.330;2023-04-24T05:09:16;9.40;99.90
14188;DHT22;7175;51.978;5.330;2023-04-24T05:11:44;9.40;99.90
14188;DHT22;7175;51.978;5.330;2023-04-24T05:14:12;9.40;99.90
14188;DHT22;7175;51.978;5.330;2023-04-24T05:16:40;9.50;99.90
14188;DHT22;7175;51.978;5.330;2023-04-24T05:19:08;9.50;99.90
14188;DHT22;7175;51.978;5.330;2023-04-24T05:21:38;9.50;99.90
14188;DHT22;7175;51.978;5.330;2023-04-24T05:24:07;9.50;99.90
14188;DHT22;7175;51.978;5.330;2023-04-24T05:26:36;9.60;99.90
14188;DHT22;7175;51.978;5.330;2023-04-24T05:29:04;9.60;99.90
14188;DHT22;7175;51.978;5.330;2023-04-24T05:31:32;9.60;99.90
14188;DHT22;7175;51.978;5.330;2023-04-24T05:34:01;9.60;99.90
14188;DHT22;7175;51.978;5.330;2023-04-24T05:36:29;9.70;99.90
14188;DHT22;7175;51.978;5.330;2023-04-24T05:38:57;9.70;99.90
14188;DHT22;7175;51.978;5.330;2023-04-24T05:41:25;9.70;99.90
14188;DHT22;7175;51.978;5.330;2023-04-24T05:43:55;9.70;99.90
14188;DHT22;7175;51.978;5.330;2023-04-24T05:46:23;9.60;99.90
14188;DHT22;7175;51.978;5.330;2023-04-24T05:48:51;9.50;99.90
14188;DHT22;7175;51.978;5.330;2023-04-24T05:51:19;9.50;99.90
14188;DHT22;7175;51.978;5.330;2023-04-24T05:53:47;9.50;99.90
14188;DHT22;7175;51.978;5.330;2023-04-24T05:56:15;9.60;99.90
14188;DHT22;7175;51.978;5.330;2023-04-24T05:58:44;9.50;99.90
14188;DHT22;7175;51.978;5.330;2023-04-24T06:01:14;9.50;99.90
14188;DHT22;7175;51.978;5.330;2023-04-24T06:03:42;9.50;99.90
14188;DHT22;7175;51.978;5.330;2023-04-24T06:06:12;9.50;99.90
14188;DHT22;7175;51.978;5.330;2023-04-24T06:08:40;9.50;99.90
14188;DHT22;7175;51.978;5.330;2023-04-24T06:11:09;9.50;99.90
14188;DHT22;7175;51.978;5.330;2023-04-24T06:13:37;9.50;99.90
14188;DHT22;7175;51.978;5.330;2023-04-24T06:16:05;9.50;99.90
14188;DHT22;7175;51.978;5.330;2023-04-24T06:18:35;9.50;99.90
14188;DHT22;7175;51.978;5.330;2023-04-24T06:21:03;9.40;99.90
14188;DHT22;7175;51.978;5.330;2023-04-24T06:23:32;9.40;99.90
14188;DHT22;7175;51.978;5.330;2023-04-24T06:26:00;9.40;99.90
14188;DHT22;7175;51.978;5.330;2023-04-24T06:28:28;9.50;99.90
14188;DHT22;7175;51.978;5.330;2023-04-24T06:30:56;9.50;99.90
14188;DHT22;7175;51.978;5.330;2023-04-24T06:33:24;9.50;99.90
14188;DHT22;7175;51.978;5.330;2023-04-24T06:35:54;9.50;99.90
14188;DHT22;7175;51.978;5.330;2023-04-24T06:38:22;9.40;99.90
14188;DHT22;7175;51.978;5.330;2023-04-24T06:40:50;9.40;99.90
14188;DHT22;7175;51.978;5.330;2023-04-24T06:43:18;9.40;99.90
14188;DHT22;7175;51.978;5.330;2023-04-24T06:45:47;9.40;99.90
14188;DHT22;7175;51.978;5.330;2023-04-24T06:48:15;9.40;99.90
14188;DHT22;7175;51.978;5.330;2023-04-24T06:50:43;9.40;99.90
14188;DHT22;7175;51.978;5.330;2023-04-24T06:53:13;9.40;99.90
14188;DHT22;7175;51.978;5.330;2023-04-24T06:55:41;9.40;99.90
14188;DHT22;7175;51.978;5.330;2023-04-24T06:58:11;9.40;99.90
14188;DHT22;7175;51.978;5.330;2023-04-24T07:00:40;9.40;99.90
14188;DHT22;7175;51.978;5.330;2023-04-24T07:03:08;9.40;99.90
14188;DHT22;7175;51.978;5.330;2023-04-24T07:05:37;9.40;99.90
14188;DHT22;7175;51.978;5.330;2023-04-24T07:08:05;9.40;99.90
14188;DHT22;7175;51.978;5.330;2023-04-24T07:10:35;9.30;99.90
14188;DHT22;7175;51.978;5.330;2023-04-24T07:13:03;9.30;99.90
14188;DHT22;7175;51.978;5.330;2023-04-24T07:15:33;9.30;99.90
14188;DHT22;7175;51.978;5.330;2023-04-24T07:18:02;9.30;99.90
14188;DHT22;7175;51.978;5.330;2023-04-24T07:20:31;9.30;99.90
14188;DHT22;7175;51.978;5.330;2023-04-24T07:23:00;9.30;99.90
14188;DHT22;7175;51.978;5.330;2023-04-24T07:25:28;9.30;99.90
14188;DHT22;7175;51.978;5.330;2023-04-24T07:27:58;9.20;99.90
14188;DHT22;7175;51.978;5.330;2023-04-24T07:30:26;9.20;99.90
14188;DHT22;7175;51.978;5.330;2023-04-24T07:32:55;9.20;99.90
14188;DHT22;7175;51.978;5.330;2023-04-24T07:35:24;9.20;99.90
14188;DHT22;7175;51.978;5.330;2023-04-24T07:37:53;9.20;99.90
14188;DHT22;7175;51.978;5.330;2023-04-24T07:40:21;9.20;99.90
14188;DHT22;7175;51.978;5.330;2023-04-24T07:42:49;9.30;99.90
14188;DHT22;7175;51.978;5.330;2023-04-24T07:45:19;9.30;99.90
14188;DHT22;7175;51.978;5.330;2023-04-24T07:47:47;9.30;99.90
14188;DHT22;7175;51.978;5.330;2023-04-24T07:50:16;9.30;99.90
14188;DHT22;7175;51.978;5.330;2023-04-24T07:52:44;9.40;99.90
14188;DHT22;7175;51.978;5.330;2023-04-24T07:55:12;9.30;99.90
14188;DHT22;7175;51.978;5.330;2023-04-24T07:57:40;9.30;99.90
14188;DHT22;7175;51.978;5.330;2023-04-24T08:00:09;9.40;99.90
14188;DHT22;7175;51.978;5.330;2023-04-24T08:02:41;9.40;99.90
14188;DHT22;7175;51.978;5.330;2023-04-24T08:05:10;9.40;99.90
14188;DHT22;7175;51.978;5.330;2023-04-24T08:07:38;9.40;99.90
14188;DHT22;7175;51.978;5.330;2023-04-24T08:10:10;9.40;99.90
14188;DHT22;7175;51.978;5.330;2023-04-24T08:12:38;9.40;99.90
14188;DHT22;7175;51.978;5.330;2023-04-24T08:15:07;9.50;99.90
14188;DHT22;7175;51.978;5.330;2023-04-24T08:17:36;9.50;99.90
14188;DHT22;7175;51.978;5.330;2023-04-24T08:20:07;9.40;99.90
14188;DHT22;7175;51.978;5.330;2023-04-24T08:22:40;9.40;99.90
14188;DHT22;7175;51.978;5.330;2023-04-24T08:25:09;9.40;99.90
14188;DHT22;7175;51.978;5.330;2023-04-24T08:27:38;9.40;99.90
14188;DHT22;7175;51.978;5.330;2023-04-24T08:30:07;9.50;99.90
14188;DHT22;7175;51.978;5.330;2023-04-24T08:32:36;9.60;99.90
14188;DHT22;7175;51.978;5.330;2023-04-24T08:35:06;9.60;99.90
14188;DHT22;7175;51.978;5.330;2023-04-24T08:37:36;9.60;99.90
14188;DHT22;7175;51.978;5.330;2023-04-24T08:40:08;9.60;99.90
14188;DHT22;7175;51.978;5.330;2023-04-24T08:42:37;9.60;99.90
14188;DHT22;7175;51.978;5.330;2023-04-24T08:45:07;9.60;99.90
14188;DHT22;7175;51.978;5.330;2023-04-24T08:47:37;9.50;99.90
14188;DHT22;7175;51.978;5.330;2023-04-24T08:50:09;9.60;99.90
14188;DHT22;7175;51.978;5.330;2023-04-24T08:52:37;9.70;99.90
14188;DHT22;7175;51.978;5.330;2023-04-24T08:55:06;9.70;99.90
14188;DHT22;7175;51.978;5.330;2023-04-24T08:57:34;9.70;99.90
14188;DHT22;7175;51.978;5.330;2023-04-24T09:00:07;9.70;99.90
14188;DHT22;7175;51.978;5.330;2023-04-24T09:02:41;9.80;99.90
14188;DHT22;7175;51.978;5.330;2023-04-24T09:05:12;9.90;99.90
14188;DHT22;7175;51.978;5.330;2023-04-24T09:07:44;10.00;99.90
14188;DHT22;7175;51.978;5.330;2023-04-24T09:10:13;9.90;99.90
14188;DHT22;7175;51.978;5.330;2023-04-24T09:12:42;9.90;99.90
14188;DHT22;7175;51.978;5.330;2023-04-24T09:15:13;10.10;99.90
14188;DHT22;7175;51.978;5.330;2023-04-24T09:17:43;10.20;99.90
14188;DHT22;7175;51.978;5.330;2023-04-24T09:20:13;10.40;99.90
14188;DHT22;7175;51.978;5.330;2023-04-24T09:22:42;10.40;99.90
14188;DHT22;7175;51.978;5.330;2023-04-24T09:25:10;10.50;99.90
14188;DHT22;7175;51.978;5.330;2023-04-24T09:27:43;10.40;99.90
14188;DHT22;7175;51.978;5.330;2023-04-24T09:30:13;10.50;99.90
14188;DHT22;7175;51.978;5.330;2023-04-24T09:32:41;10.50;99.90
14188;DHT22;7175;51.978;5.330;2023-04-24T09:35:13;10.50;99.90
14188;DHT22;7175;51.978;5.330;2023-04-24T09:37:43;10.50;99.90
14188;DHT22;7175;51.978;5.330;2023-04-24T09:40:14;10.60;99.90
14188;DHT22;7175;51.978;5.330;2023-04-24T09:42:46;10.80;99.90
14188;DHT22;7175;51.978;5.330;2023-04-24T09:45:19;10.90;99.90
14188;DHT22;7175;51.978;5.330;2023-04-24T09:47:51;11.00;99.90
14188;DHT22;7175;51.978;5.330;2023-04-24T09:50:21;11.00;99.90
14188;DHT22;7175;51.978;5.330;2023-04-24T09:52:57;11.00;99.90
14188;DHT22;7175;51.978;5.330;2023-04-24T09:55:25;10.80;99.90
14188;DHT22;7175;51.978;5.330;2023-04-24T09:57:56;10.70;99.90
14188;DHT22;7175;51.978;5.330;2023-04-24T10:00:25;10.80;99.90
14188;DHT22;7175;51.978;5.330;2023-04-24T10:02:58;10.90;99.90
14188;DHT22;7175;51.978;5.330;2023-04-24T10:05:30;10.70;99.90
14188;DHT22;7175;51.978;5.330;2023-04-24T10:08:01;10.60;99.90
14188;DHT22;7175;51.978;5.330;2023-04-24T10:10:29;10.60;99.90
14188;DHT22;7175;51.978;5.330;2023-04-24T10:12:59;10.70;99.90
14188;DHT22;7175;51.978;5.330;2023-04-24T10:15:27;10.70;99.90
14188;DHT22;7175;51.978;5.330;2023-04-24T10:17:57;10.70;99.90
14188;DHT22;7175;51.978;5.330;2023-04-24T10:20:29;10.70;99.90
14188;DHT22;7175;51.978;5.330;2023-04-24T10:22:58;10.70;99.90
14188;DHT22;7175;51.978;5.330;2023-04-24T10:25:28;10.70;99.90
14188;DHT22;7175;51.978;5.330;2023-04-24T10:27:57;10.70;99.90
14188;DHT22;7175;51.978;5.330;2023-04-24T10:30:27;10.50;99.90
14188;DHT22;7175;51.978;5.330;2023-04-24T10:32:56;10.50;99.90
14188;DHT22;7175;51.978;5.330;2023-04-24T10:35:24;10.40;99.90
14188;DHT22;7175;51.978;5.330;2023-04-24T10:37:57;10.60;99.90
14188;DHT22;7175;51.978;5.330;2023-04-24T10:40:27;10.70;99.90
14188;DHT22;7175;51.978;5.330;2023-04-24T10:42:57;10.90;99.90
14188;DHT22;7175;51.978;5.330;2023-04-24T10:45:26;11.10;99.90
14188;DHT22;7175;51.978;5.330;2023-04-24T10:47:57;11.00;99.90
14188;DHT22;7175;51.978;5.330;2023-04-24T10:50:27;10.90;99.90
14188;DHT22;7175;51.978;5.330;2023-04-24T10:53:07;10.80;99.90
14188;DHT22;7175;51.978;5.330;2023-04-24T10:55:43;10.80;99.90
14188;DHT22;7175;51.978;5.330;2023-04-24T10:58:12;10.60;99.90
14188;DHT22;7175;51.978;5.330;2023-04-24T11:00:42;10.50;99.90
14188;DHT22;7175;51.978;5.330;2023-04-24T11:03:25;10.80;99.90
14188;DHT22;7175;51.978;5.330;2023-04-24T11:05:59;11.10;99.90
14188;DHT22;7175;51.978;5.330;2023-04-24T11:08:30;11.60;99.90
14188;DHT22;7175;51.978;5.330;2023-04-24T11:11:01;11.90;99.90
14188;DHT22;7175;51.978;5.330;2023-04-24T11:14:01;12.30;99.90
14188;DHT22;7175;51.978;5.330;2023-04-24T11:16:31;12.20;99.90
14188;DHT22;7175;51.978;5.330;2023-04-24T11:19:02;12.20;99.90
14188;DHT22;7175;51.978;5.330;2023-04-24T11:21:42;12.20;99.90
14188;DHT22;7175;51.978;5.330;2023-04-24T11:24:30;12.10;99.90
14188;DHT22;7175;51.978;5.330;2023-04-24T11:27:00;12.20;99.90
14188;DHT22;7175;51.978;5.330;2023-04-24T11:29:40;12.30;99.90
14188;DHT22;7175;51.978;5.330;2023-04-24T11:32:25;12.40;99.90
14188;DHT22;7175;51.978;5.330;2023-04-24T11:34:54;12.40;99.90
14188;DHT22;7175;51.978;5.330;2023-04-24T11:37:24;12.20;99.90
14188;DHT22;7175;51.978;5.330;2023-04-24T11:39:57;12.00;99.90
14188;DHT22;7175;51.978;5.330;2023-04-24T11:42:26;11.70;99.90
14188;DHT22;7175;51.978;5.330;2023-04-24T11:44:55;11.80;99.90
14188;DHT22;7175;51.978;5.330;2023-04-24T11:47:31;11.60;99.90
14188;DHT22;7175;51.978;5.330;2023-04-24T11:50:01;11.60;99.90
14188;DHT22;7175;51.978;5.330;2023-04-24T11:52:30;11.50;99.90
14188;DHT22;7175;51.978;5.330;2023-04-24T11:55:00;11.40;99.90
14188;DHT22;7175;51.978;5.330;2023-04-24T11:57:29;11.30;99.90
14188;DHT22;7175;51.978;5.330;2023-04-24T12:00:00;11.30;99.90
14188;DHT22;7175;51.978;5.330;2023-04-24T12:02:31;11.00;99.90
14188;DHT22;7175;51.978;5.330;2023-04-24T12:04:59;10.90;99.90
14188;DHT22;7175;51.978;5.330;2023-04-24T12:07:28;10.80;99.90
14188;DHT22;7175;51.978;5.330;2023-04-24T12:09:57;10.80;99.90
14188;DHT22;7175;51.978;5.330;2023-04-24T12:12:28;10.70;99.90
14188;DHT22;7175;51.978;5.330;2023-04-24T12:14:58;10.60;99.90
14188;DHT22;7175;51.978;5.330;2023-04-24T12:17:28;10.40;99.90
14188;DHT22;7175;51.978;5.330;2023-04-24T12:19:58;10.40;99.90
14188;DHT22;7175;51.978;5.330;2023-04-24T12:22:28;10.40;99.90
14188;DHT22;7175;51.978;5.330;2023-04-24T12:25:00;10.50;99.90
14188;DHT22;7175;51.978;5.330;2023-04-24T12:27:31;10.50;99.90
14188;DHT22;7175;51.978;5.330;2023-04-24T12:30:02;10.40;99.90
14188;DHT22;7175;51.978;5.330;2023-04-24T12:32:31;10.50;99.90
14188;DHT22;7175;51.978;5.330;2023-04-24T12:34:59;10.50;99.90
14188;DHT22;7175;51.978;5.330;2023-04-24T12:37:33;10.60;99.90
14188;DHT22;7175;51.978;5.330;2023-04-24T12:40:05;10.50;99.90
14188;DHT22;7175;51.978;5.330;2023-04-24T12:42:36;10.60;99.90
14188;DHT22;7175;51.978;5.330;2023-04-24T12:45:09;10.80;99.90
14188;DHT22;7175;51.978;5.330;2023-04-24T12:47:39;10.80;99.90
14188;DHT22;7175;51.978;5.330;2023-04-24T12:50:08;10.80;99.90
14188;DHT22;7175;51.978;5.330;2023-04-24T12:52:37;10.80;99.90
14188;DHT22;7175;51.978;5.330;2023-04-24T12:55:06;10.70;99.90
14188;DHT22;7175;51.978;5.330;2023-04-24T12:57:38;10.70;99.90
14188;DHT22;7175;51.978;5.330;2023-04-24T13:00:08;10.70;99.90
14188;DHT22;7175;51.978;5.330;2023-04-24T13:02:36;10.70;99.90
14188;DHT22;7175;51.978;5.330;2023-04-24T13:05:06;10.70;99.90
14188;DHT22;7175;51.978;5.330;2023-04-24T13:07:34;10.90;99.90
14188;DHT22;7175;51.978;5.330;2023-04-24T13:10:02;11.20;99.90
14188;DHT22;7175;51.978;5.330;2023-04-24T13:12:31;11.50;99.90
14188;DHT22;7175;51.978;5.330;2023-04-24T13:15:00;11.60;99.90
14188;DHT22;7175;51.978;5.330;2023-04-24T13:17:28;11.60;99.90
14188;DHT22;7175;51.978;5.330;2023-04-24T13:19:57;11.70;99.90
14188;DHT22;7175;51.978;5.330;2023-04-24T13:22:25;11.70;99.90
14188;DHT22;7175;51.978;5.330;2023-04-24T13:24:54;11.90;99.90
14188;DHT22;7175;51.978;5.330;2023-04-24T13:27:23;12.60;99.90
14188;DHT22;7175;51.978;5.330;2023-04-24T13:29:51;13.10;99.90
14188;DHT22;7175;51.978;5.330;2023-04-24T13:32:21;12.60;99.90
14188;DHT22;7175;51.978;5.330;2023-04-24T13:34:49;12.50;99.90
14188;DHT22;7175;51.978;5.330;2023-04-24T13:37:17;12.10;99.90
14188;DHT22;7175;51.978;5.330;2023-04-24T13:39:45;11.90;99.90
14188;DHT22;7175;51.978;5.330;2023-04-24T13:42:13;11.80;99.90
14188;DHT22;7175;51.978;5.330;2023-04-24T13:44:41;12.10;99.90
14188;DHT22;7175;51.978;5.330;2023-04-24T13:47:10;12.20;99.90
14188;DHT22;7175;51.978;5.330;2023-04-24T13:49:40;12.60;99.90
14188;DHT22;7175;51.978;5.330;2023-04-24T13:52:08;12.80;99.90
14188;DHT22;7175;51.978;5.330;2023-04-24T13:54:37;13.00;99.90
14188;DHT22;7175;51.978;5.330;2023-04-24T13:57:05;13.10;99.90
14188;DHT22;7175;51.978;5.330;2023-04-24T13:59:33;13.60;99.90
14188;DHT22;7175;51.978;5.330;2023-04-24T14:02:01;13.20;99.90
14188;DHT22;7175;51.978;5.330;2023-04-24T14:04:29;13.10;99.90
14188;DHT22;7175;51.978;5.330;2023-04-24T14:06:59;13.00;99.90
14188;DHT22;7175;51.978;5.330;2023-04-24T14:09:27;13.00;99.90
14188;DHT22;7175;51.978;5.330;2023-04-24T14:11:55;13.20;99.90
14188;DHT22;7175;51.978;5.330;2023-04-24T14:14:23;13.10;99.90
14188;DHT22;7175;51.978;5.330;2023-04-24T14:16:51;13.00;99.90
14188;DHT22;7175;51.978;5.330;2023-04-24T14:19:20;12.80;99.90
14188;DHT22;7175;51.978;5.330;2023-04-24T14:21:48;12.70;99.90
14188;DHT22;7175;51.978;5.330;2023-04-24T14:24:18;12.70;99.90
14188;DHT22;7175;51.978;5.330;2023-04-24T14:26:46;12.90;99.90
14188;DHT22;7175;51.978;5.330;2023-04-24T14:29:14;12.80;99.90
14188;DHT22;7175;51.978;5.330;2023-04-24T14:31:43;12.60;99.90
14188;DHT22;7175;51.978;5.330;2023-04-24T14:34:13;12.30;99.90
14188;DHT22;7175;51.978;5.330;2023-04-24T14:36:42;12.10;99.90
14188;DHT22;7175;51.978;5.330;2023-04-24T14:39:10;12.10;99.90
14188;DHT22;7175;51.978;5.330;2023-04-24T14:41:40;12.30;99.90
14188;DHT22;7175;51.978;5.330;2023-04-24T14:44:08;12.20;99.90
14188;DHT22;7175;51.978;5.330;2023-04-24T14:46:37;12.30;99.90
14188;DHT22;7175;51.978;5.330;2023-04-24T14:49:05;12.50;99.90
14188;DHT22;7175;51.978;5.330;2023-04-24T14:51:36;12.70;99.90
14188;DHT22;7175;51.978;5.330;2023-04-24T14:54:04;12.70;99.90
14188;DHT22;7175;51.978;5.330;2023-04-24T14:56:32;12.70;99.90
14188;DHT22;7175;51.978;5.330;2023-04-24T14:59:02;12.50;99.90
14188;DHT22;7175;51.978;5.330;2023-04-24T15:01:30;12.30;99.90
14188;DHT22;7175;51.978;5.330;2023-04-24T15:03:59;12.30;99.90
14188;DHT22;7175;51.978;5.330;2023-04-24T15:06:27;12.10;99.90
14188;DHT22;7175;51.978;5.330;2023-04-24T15:08:57;11.90;99.90
14188;DHT22;7175;51.978;5.330;2023-04-24T15:11:25;11.80;99.90
14188;DHT22;7175;51.978;5.330;2023-04-24T15:13:55;11.60;99.90
14188;DHT22;7175;51.978;5.330;2023-04-24T15:16:25;11.50;99.90
14188;DHT22;7175;51.978;5.330;2023-04-24T15:18:53;11.30;99.90
14188;DHT22;7175;51.978;5.330;2023-04-24T15:21:21;11.60;99.90
14188;DHT22;7175;51.978;5.330;2023-04-24T15:23:49;11.80;99.90
14188;DHT22;7175;51.978;5.330;2023-04-24T15:26:17;12.00;99.90
14188;DHT22;7175;51.978;5.330;2023-04-24T15:28:46;12.10;99.90
14188;DHT22;7175;51.978;5.330;2023-04-24T15:31:14;11.80;99.90
14188;DHT22;7175;51.978;5.330;2023-04-24T15:33:43;11.80;99.90
14188;DHT22;7175;51.978;5.330;2023-04-24T15:36:12;11.80;99.90
14188;DHT22;7175;51.978;5.330;2023-04-24T15:38:40;12.00;99.90
14188;DHT22;7175;51.978;5.330;2023-04-24T15:41:08;12.10;99.90
14188;DHT22;7175;51.978;5.330;2023-04-24T15:43:37;12.10;99.90
14188;DHT22;7175;51.978;5.330;2023-04-24T15:46:05;12.20;99.90
14188;DHT22;7175;51.978;5.330;2023-04-24T15:48:34;12.10;99.90
14188;DHT22;7175;51.978;5.330;2023-04-24T15:51:04;12.00;99.90
14188;DHT22;7175;51.978;5.330;2023-04-24T15:53:33;12.00;99.90
14188;DHT22;7175;51.978;5.330;2023-04-24T15:56:01;12.20;99.90
14188;DHT22;7175;51.978;5.330;2023-04-24T15:58:29;12.20;99.90
14188;DHT22;7175;51.978;5.330;2023-04-24T16:00:58;12.20;99.90
14188;DHT22;7175;51.978;5.330;2023-04-24T16:03:27;12.50;99.90
14188;DHT22;7175;51.978;5.330;2023-04-24T16:05:56;12.20;99.90